Time;durP1;ratioP1;P1;durP2;ratioP2;P2;SDS_P1;SDS_P2;PMS_P1;PMS_P2;Temp;Humidity;BMP_temperature;BMP_pressure;BME280_temperature;BME280_humidity;BME280_pressure;Samples;Min_cycle;Max_cycle;Signal;HPM_P1;HPM_P2
2023/09/06 00:01:08;;;;;;;4.23;3.80;;;18.60;99.90;;;;;;5020321;28;20199;-53
2023/09/06 00:03:36;;;;;;;3.67;3.37;;;18.60;99.90;;;;;;5024213;28;20277;-47
2023/09/06 00:06:05;;;;;;;3.93;3.27;;;18.50;99.90;;;;;;5024327;28;20215;-54
2023/09/06 00:08:34;;;;;;;5.80;3.83;;;18.50;99.90;;;;;;5008884;28;20309;-50
2023/09/06 00:11:04;;;;;;;4.57;4.17;;;18.40;99.90;;;;;;5022872;28;20195;-51
2023/09/06 00:13:32;;;;;;;4.33;3.97;;;18.40;99.90;;;;;;5027889;28;20200;-56
2023/09/06 00:16:00;;;;;;;5.50;4.73;;;18.40;99.90;;;;;;5015164;28;20262;-56
2023/09/06 00:18:27;;;;;;;5.30;4.80;;;18.30;99.90;;;;;;5025736;28;20196;-50
2023/09/06 00:20:57;;;;;;;4.87;4.50;;;18.30;99.90;;;;;;5020799;28;20275;-54
2023/09/06 00:23:26;;;;;;;5.10;4.60;;;18.30;99.90;;;;;;5009091;28;20219;-52
2023/09/06 00:25:53;;;;;;;5.10;4.70;;;18.20;99.90;;;;;;5022236;28;20860;-53
2023/09/06 00:28:23;;;;;;;5.27;4.80;;;18.20;99.90;;;;;;5027058;28;20298;-51
2023/09/06 00:30:51;;;;;;;6.57;5.00;;;18.10;99.90;;;;;;5013621;28;20266;-56
2023/09/06 00:33:18;;;;;;;5.57;4.90;;;18.10;99.90;;;;;;5028075;28;20192;-52
2023/09/06 00:35:45;;;;;;;5.57;4.67;;;18.00;99.90;;;;;;5027825;28;20270;-47
2023/09/06 00:38:11;;;;;;;4.83;4.43;;;18.00;99.90;;;;;;5012278;28;20211;-54
2023/09/06 00:40:40;;;;;;;5.40;4.90;;;17.90;99.90;;;;;;5027516;28;20204;-48
2023/09/06 00:43:09;;;;;;;5.57;5.07;;;17.80;99.90;;;;;;5025652;28;20281;-55
2023/09/06 00:45:39;;;;;;;5.47;4.77;;;17.80;99.90;;;;;;5020969;28;20254;-48
2023/09/06 00:48:08;;;;;;;5.13;4.63;;;17.80;99.90;;;;;;5022207;28;21032;-56
2023/09/06 00:50:36;;;;;;;4.80;4.40;;;17.90;99.90;;;;;;5024356;28;20200;-49
2023/09/06 00:53:06;;;;;;;5.33;4.83;;;18.00;99.90;;;;;;5004777;28;20212;-54
2023/09/06 00:55:34;;;;;;;5.10;4.70;;;17.90;99.90;;;;;;5024306;28;20278;-50
2023/09/06 00:58:03;;;;;;;5.27;4.87;;;17.90;99.90;;;;;;5021788;28;20995;-52
2023/09/06 01:00:31;;;;;;;4.70;4.27;;;17.90;99.90;;;;;;5017023;28;20270;-52
2023/09/06 01:02:58;;;;;;;5.20;4.70;;;17.80;99.90;;;;;;5022763;28;20518;-54
2023/09/06 01:05:28;;;;;;;4.90;4.40;;;17.80;99.90;;;;;;5027379;28;20223;-54
2023/09/06 01:07:58;;;;;;;4.63;4.27;;;17.60;99.90;;;;;;5019461;28;20293;-52
2023/09/06 01:10:25;;;;;;;4.93;4.53;;;17.50;99.90;;;;;;5006431;28;20262;-55
2023/09/06 01:12:55;;;;;;;4.97;4.67;;;17.50;99.90;;;;;;5013709;28;20265;-56
2023/09/06 01:15:23;;;;;;;5.23;4.73;;;17.40;99.90;;;;;;5024785;28;20196;-55
2023/09/06 01:17:52;;;;;;;4.90;4.40;;;17.40;99.90;;;;;;5013528;28;20258;-50
2023/09/06 01:20:29;;;;;;;4.20;3.90;;;17.50;99.90;;;;;;5022619;28;20204;-49
2023/09/06 01:23:07;;;;;;;5.37;4.50;;;17.60;99.90;;;;;;5012263;28;20202;-52
2023/09/06 01:25:35;;;;;;;5.07;4.67;;;17.60;99.90;;;;;;5014622;28;20227;-51
2023/09/06 01:28:03;;;;;;;4.90;4.40;;;17.60;99.90;;;;;;5023499;28;20281;-52
2023/09/06 01:30:30;;;;;;;5.80;5.20;;;17.60;99.90;;;;;;5043730;28;20677;-48
2023/09/06 01:32:57;;;;;;;5.40;4.33;;;17.60;99.90;;;;;;5023922;28;20184;-56
2023/09/06 01:35:24;;;;;;;5.17;4.67;;;17.60;99.90;;;;;;5034238;28;20223;-50
2023/09/06 01:37:50;;;;;;;4.93;4.40;;;17.60;99.90;;;;;;5033699;28;20220;-53
2023/09/06 01:40:19;;;;;;;5.27;4.80;;;17.60;99.90;;;;;;5020246;28;20216;-54
2023/09/06 01:42:48;;;;;;;5.00;4.50;;;17.50;99.90;;;;;;5026210;28;20239;-52
2023/09/06 01:45:17;;;;;;;5.60;5.10;;;17.50;99.90;;;;;;5035776;28;20577;-55
2023/09/06 01:47:45;;;;;;;4.80;4.40;;;17.40;99.90;;;;;;5023529;28;20232;-49
2023/09/06 01:50:12;;;;;;;4.30;4.00;;;17.30;99.90;;;;;;5036564;28;20566;-54
2023/09/06 01:52:39;;;;;;;5.40;4.93;;;17.20;99.90;;;;;;5036179;28;20232;-47
2023/09/06 01:55:07;;;;;;;4.73;4.33;;;17.10;99.90;;;;;;5035526;28;20456;-55
2023/09/06 01:57:34;;;;;;;4.30;4.00;;;17.00;99.90;;;;;;5009047;28;20228;-50
2023/09/06 02:00:18;;;;;;;6.43;4.53;;;17.00;99.90;;;;;;5029386;28;20200;-50
2023/09/06 02:02:45;;;;;;;5.23;4.00;;;17.10;99.90;;;;;;5025816;28;20676;-43
2023/09/06 02:05:12;;;;;;;5.27;4.50;;;17.10;99.90;;;;;;5027677;28;20218;-56
2023/09/06 02:07:39;;;;;;;5.87;5.20;;;17.10;99.90;;;;;;5030109;28;20255;-52
2023/09/06 02:10:08;;;;;;;5.27;4.87;;;16.90;99.90;;;;;;5022276;28;20262;-56
2023/09/06 02:12:35;;;;;;;4.90;4.50;;;16.90;99.90;;;;;;5006689;28;20306;-49
2023/09/06 02:15:04;;;;;;;4.93;4.53;;;16.90;99.90;;;;;;5031971;28;20198;-51
2023/09/06 02:17:31;;;;;;;4.77;4.33;;;17.00;99.90;;;;;;5030547;28;20282;-49
2023/09/06 02:20:01;;;;;;;4.33;4.03;;;17.00;99.90;;;;;;5017420;28;20200;-51
2023/09/06 02:22:27;;;;;;;5.17;4.77;;;17.10;99.90;;;;;;5032609;28;20195;-52
2023/09/06 02:24:54;;;;;;;5.40;5.00;;;17.10;99.90;;;;;;5028277;28;20242;-57
2023/09/06 02:27:21;;;;;;;5.40;4.90;;;17.10;99.90;;;;;;5016298;28;20254;-49
2023/09/06 02:29:51;;;;;;;5.83;5.33;;;17.10;99.90;;;;;;5031641;28;20204;-50
2023/09/06 02:32:19;;;;;;;6.40;5.20;;;17.10;99.90;;;;;;5042407;28;20565;-50
2023/09/06 02:34:47;;;;;;;5.37;4.97;;;17.00;99.90;;;;;;5023388;28;20208;-51
2023/09/06 02:37:14;;;;;;;5.30;4.80;;;16.90;99.90;;;;;;5029886;28;20215;-53
2023/09/06 02:39:41;;;;;;;4.63;4.23;;;16.80;99.90;;;;;;5031759;28;20204;-49
2023/09/06 02:42:07;;;;;;;5.20;4.70;;;16.80;99.90;;;;;;5026725;28;20199;-51
2023/09/06 02:44:34;;;;;;;4.57;4.20;;;16.80;99.90;;;;;;5022086;28;20211;-47
2023/09/06 02:47:03;;;;;;;4.50;4.20;;;16.80;99.90;;;;;;5029824;28;20273;-53
2023/09/06 02:49:32;;;;;;;5.37;4.50;;;16.80;99.90;;;;;;5027483;28;20323;-49
2023/09/06 02:51:59;;;;;;;4.80;4.37;;;16.80;99.90;;;;;;5022886;28;21021;-55
2023/09/06 02:54:26;;;;;;;5.57;4.07;;;16.70;99.90;;;;;;5037182;28;20210;-54
2023/09/06 02:56:56;;;;;;;5.90;4.50;;;16.70;99.90;;;;;;5030928;28;20262;-53
2023/09/06 02:59:23;;;;;;;4.67;4.27;;;16.70;99.90;;;;;;5005523;28;20214;-53
2023/09/06 03:01:50;;;;;;;4.63;4.30;;;16.70;99.90;;;;;;5030110;28;20192;-56
2023/09/06 03:04:17;;;;;;;4.70;4.33;;;16.80;99.90;;;;;;5033755;28;20204;-55
2023/09/06 03:06:45;;;;;;;4.60;4.20;;;16.70;99.90;;;;;;5016794;28;20694;-52
2023/09/06 03:09:13;;;;;;;4.73;4.43;;;16.70;99.90;;;;;;5028552;28;20212;-54
2023/09/06 03:11:40;;;;;;;7.47;4.70;;;16.70;99.90;;;;;;5027198;28;20198;-51
2023/09/06 03:14:07;;;;;;;5.37;4.67;;;16.70;99.90;;;;;;5015071;28;20253;-56
2023/09/06 03:16:38;;;;;;;4.70;4.37;;;16.70;99.90;;;;;;5027653;28;20226;-47
2023/09/06 03:19:10;;;;;;;5.53;4.67;;;16.70;99.90;;;;;;5028629;28;20190;-52
2023/09/06 03:21:38;;;;;;;5.20;4.70;;;16.60;99.90;;;;;;5009165;28;21024;-52
2023/09/06 03:24:11;;;;;;;5.10;4.70;;;16.60;99.90;;;;;;5015833;28;20952;-50
2023/09/06 03:26:43;;;;;;;5.77;5.20;;;16.40;99.90;;;;;;5025787;28;20227;-52
2023/09/06 03:29:11;;;;;;;5.60;5.10;;;16.40;99.90;;;;;;5011904;28;20224;-52
2023/09/06 03:31:42;;;;;;;4.80;4.30;;;16.30;99.90;;;;;;5024957;28;20274;-51
2023/09/06 03:34:13;;;;;;;5.17;4.77;;;16.30;99.90;;;;;;5031437;28;20191;-56
2023/09/06 03:36:51;;;;;;;5.37;4.83;;;16.30;99.90;;;;;;5007854;28;20714;-54
2023/09/06 03:39:19;;;;;;;5.40;5.00;;;16.20;99.90;;;;;;5028694;28;20254;-55
2023/09/06 03:41:48;;;;;;;5.33;4.80;;;16.10;99.90;;;;;;5028239;28;20287;-46
2023/09/06 03:44:16;;;;;;;4.63;4.23;;;16.20;99.90;;;;;;5029687;28;20196;-54
2023/09/06 03:46:42;;;;;;;4.87;4.47;;;16.30;99.90;;;;;;5011398;28;20236;-56
2023/09/06 03:49:10;;;;;;;5.17;4.80;;;16.30;99.90;;;;;;5028078;28;20961;-53
2023/09/06 03:51:38;;;;;;;5.27;4.87;;;16.40;99.90;;;;;;5016136;28;20283;-55
2023/09/06 03:54:06;;;;;;;5.83;5.30;;;16.40;99.90;;;;;;5020973;28;20247;-49
2023/09/06 03:56:38;;;;;;;5.33;4.90;;;16.40;99.90;;;;;;5028049;28;20227;-56
2023/09/06 03:59:08;;;;;;;5.60;5.17;;;16.40;99.90;;;;;;5028371;28;20891;-54
2023/09/06 04:01:36;;;;;;;5.20;4.80;;;16.40;99.90;;;;;;5008113;28;20227;-55
2023/09/06 04:04:04;;;;;;;6.83;5.20;;;16.40;99.90;;;;;;5023333;28;20196;-53
2023/09/06 04:06:31;;;;;;;7.33;5.20;;;16.40;99.90;;;;;;5021658;28;20294;-54
2023/09/06 04:08:57;;;;;;;5.40;4.90;;;16.40;99.90;;;;;;5017324;28;20216;-49
2023/09/06 04:11:25;;;;;;;5.67;5.20;;;16.30;99.90;;;;;;5029407;28;20298;-51
2023/09/06 04:13:55;;;;;;;5.50;5.00;;;16.30;99.90;;;;;;5026741;28;20196;-49
2023/09/06 04:16:25;;;;;;;6.20;5.27;;;16.30;99.90;;;;;;5001965;28;20231;-55
2023/09/06 04:18:52;;;;;;;6.33;5.50;;;16.30;99.90;;;;;;5017879;28;21444;-50
2023/09/06 04:21:20;;;;;;;6.30;5.70;;;16.30;99.90;;;;;;5012765;28;20200;-53
2023/09/06 04:23:47;;;;;;;6.83;5.83;;;16.20;99.90;;;;;;5005845;28;20219;-49
2023/09/06 04:26:19;;;;;;;6.13;5.63;;;16.10;99.90;;;;;;5018965;28;20900;-55
2023/09/06 04:28:47;;;;;;;7.27;6.43;;;16.10;99.90;;;;;;5023203;28;20310;-49
2023/09/06 04:31:17;;;;;;;7.63;6.90;;;16.10;99.90;;;;;;5009807;28;20317;-56
2023/09/06 04:33:46;;;;;;;7.80;6.40;;;16.10;99.90;;;;;;5025133;28;20586;-50
2023/09/06 04:36:18;;;;;;;8.13;7.40;;;16.00;99.90;;;;;;5036371;28;20299;-56
2023/09/06 04:38:46;;;;;;;7.40;6.57;;;16.00;99.90;;;;;;5011762;28;20210;-47
2023/09/06 04:41:14;;;;;;;8.07;7.20;;;16.00;99.90;;;;;;5025099;28;20215;-56
2023/09/06 04:43:48;;;;;;;7.73;6.93;;;16.00;99.90;;;;;;5024647;28;20630;-50
2023/09/06 04:46:15;;;;;;;7.90;7.10;;;16.00;99.90;;;;;;5012413;28;20231;-55
2023/09/06 04:48:46;;;;;;;8.60;7.70;;;15.90;99.90;;;;;;5002625;28;20212;-55
2023/09/06 04:51:14;;;;;;;8.23;7.30;;;15.90;99.90;;;;;;5022855;28;20204;-56
2023/09/06 04:53:42;;;;;;;9.07;8.27;;;15.90;99.90;;;;;;5011050;28;20326;-57
2023/09/06 04:56:13;;;;;;;9.67;8.67;;;15.90;99.90;;;;;;5027882;28;21468;-56
2023/09/06 04:58:47;;;;;;;8.57;7.73;;;15.90;99.90;;;;;;5015361;28;20239;-55
2023/09/06 05:01:14;;;;;;;9.40;8.60;;;16.00;99.90;;;;;;5025383;28;20220;-54
2023/09/06 05:03:41;;;;;;;11.33;9.83;;;16.00;99.90;;;;;;4992421;28;20353;-54
2023/09/06 05:06:09;;;;;;;10.17;9.20;;;15.90;99.90;;;;;;5024834;28;20222;-57
2023/09/06 05:08:36;;;;;;;9.63;8.63;;;15.90;99.90;;;;;;5008094;28;20220;-52
2023/09/06 05:11:09;;;;;;;10.00;9.03;;;15.80;99.90;;;;;;5016047;28;20212;-56
2023/09/06 05:13:38;;;;;;;9.63;8.47;;;15.80;99.90;;;;;;5016421;28;20204;-57
2023/09/06 05:16:07;;;;;;;11.03;9.70;;;15.90;99.90;;;;;;5016746;28;20266;-57
2023/09/06 05:18:34;;;;;;;10.93;9.83;;;15.90;99.90;;;;;;5000095;28;20192;-51
2023/09/06 05:21:03;;;;;;;11.50;9.40;;;15.90;99.90;;;;;;5020922;28;20730;-56
2023/09/06 05:23:32;;;;;;;10.00;9.10;;;15.90;99.90;;;;;;5008243;28;20247;-56
2023/09/06 05:25:59;;;;;;;9.80;8.80;;;15.80;99.90;;;;;;5004019;28;20224;-56
2023/09/06 05:28:31;;;;;;;8.50;7.57;;;15.90;99.90;;;;;;5017775;28;20321;-57
2023/09/06 05:31:02;;;;;;;10.63;8.30;;;15.90;99.90;;;;;;5022423;28;20218;-59
2023/09/06 05:33:31;;;;;;;10.93;9.00;;;16.00;99.90;;;;;;4998853;28;20211;-59
2023/09/06 05:36:00;;;;;;;9.67;8.87;;;16.00;99.90;;;;;;5024820;28;20602;-52
2023/09/06 05:38:27;;;;;;;10.60;9.43;;;16.00;99.90;;;;;;5011688;28;20208;-59
2023/09/06 05:40:55;;;;;;;13.57;9.20;;;16.00;99.90;;;;;;5007466;28;20211;-52
2023/09/06 05:43:29;;;;;;;12.00;10.60;;;16.10;99.90;;;;;;5016076;28;20214;-57
2023/09/06 05:45:57;;;;;;;9.70;8.70;;;16.10;99.90;;;;;;5016197;28;20270;-48
2023/09/06 05:48:24;;;;;;;10.63;8.57;;;16.10;99.90;;;;;;5006764;28;20244;-59
2023/09/06 05:50:52;;;;;;;14.07;9.07;;;16.10;99.90;;;;;;5026020;28;20192;-53
2023/09/06 05:53:20;;;;;;;10.43;8.93;;;16.20;99.90;;;;;;5020102;28;20203;-57
2023/09/06 05:55:47;;;;;;;10.53;8.10;;;16.20;99.90;;;;;;5008095;28;20235;-51
2023/09/06 05:58:16;;;;;;;9.90;8.73;;;16.20;99.90;;;;;;5013541;28;20188;-59
2023/09/06 06:00:43;;;;;;;10.00;8.67;;;16.30;99.90;;;;;;5014728;28;20694;-52
2023/09/06 06:03:11;;;;;;;10.07;8.87;;;16.30;99.90;;;;;;5017439;28;20196;-59
2023/09/06 06:05:37;;;;;;;8.93;7.97;;;16.40;99.90;;;;;;5004956;28;20228;-56
2023/09/06 06:08:05;;;;;;;8.93;8.17;;;16.40;99.90;;;;;;5017410;28;21012;-56
2023/09/06 06:10:34;;;;;;;8.40;7.53;;;16.50;99.90;;;;;;5014912;28;20278;-56
2023/09/06 06:13:03;;;;;;;9.87;8.97;;;16.50;99.90;;;;;;5006973;28;20200;-56
2023/09/06 06:15:32;;;;;;;8.57;7.77;;;16.60;99.90;;;;;;5026484;28;20319;-54
2023/09/06 06:17:59;;;;;;;8.63;7.77;;;16.60;99.90;;;;;;5016427;28;20207;-56
2023/09/06 06:20:26;;;;;;;7.30;6.60;;;16.70;99.90;;;;;;5014684;28;20231;-58
2023/09/06 06:22:52;;;;;;;7.13;6.47;;;16.80;99.90;;;;;;5013592;28;20254;-52
2023/09/06 06:25:19;;;;;;;8.03;7.33;;;16.90;99.90;;;;;;5013314;28;20259;-58
2023/09/06 06:27:46;;;;;;;7.60;6.87;;;16.90;99.90;;;;;;5007513;28;20281;-53
2023/09/06 06:30:14;;;;;;;7.10;6.40;;;17.00;99.90;;;;;;5017903;28;20220;-55
2023/09/06 06:32:42;;;;;;;6.37;5.87;;;17.10;99.90;;;;;;5005247;28;20204;-57
2023/09/06 06:35:11;;;;;;;6.97;5.57;;;17.20;99.90;;;;;;5002290;28;20258;-54
2023/09/06 06:37:39;;;;;;;6.13;5.63;;;17.30;99.90;;;;;;5023761;28;20200;-48
2023/09/06 06:40:08;;;;;;;7.23;5.80;;;17.40;99.90;;;;;;5013241;28;20204;-50
2023/09/06 06:42:35;;;;;;;5.50;4.83;;;17.60;99.90;;;;;;5010583;28;20204;-45
2023/09/06 06:45:08;;;;;;;5.70;5.30;;;17.60;99.90;;;;;;5022333;28;20196;-50
2023/09/06 06:47:36;;;;;;;5.13;4.63;;;17.70;99.90;;;;;;5025746;28;20950;-47
2023/09/06 06:50:06;;;;;;;4.30;4.00;;;17.80;99.90;;;;;;4989848;28;20460;-57
2023/09/06 06:52:36;;;;;;;5.30;4.90;;;17.90;99.90;;;;;;5013632;28;20216;-50
2023/09/06 06:55:05;;;;;;;4.53;4.13;;;18.00;99.90;;;;;;5004747;28;20211;-56
2023/09/06 06:57:35;;;;;;;4.60;4.20;;;18.20;99.90;;;;;;5006814;28;20208;-48
2023/09/06 07:00:05;;;;;;;4.90;4.50;;;18.30;99.90;;;;;;5006427;28;20204;-55
2023/09/06 07:02:34;;;;;;;4.27;3.97;;;18.40;99.90;;;;;;5021681;28;20235;-49
2023/09/06 07:05:01;;;;;;;4.67;4.27;;;18.50;99.90;;;;;;5006263;28;20204;-55
2023/09/06 07:07:30;;;;;;;4.07;3.77;;;18.60;99.90;;;;;;5016468;28;20235;-51
2023/09/06 07:09:59;;;;;;;4.27;3.70;;;18.70;99.90;;;;;;5021641;28;20246;-54
2023/09/06 07:12:26;;;;;;;4.40;3.90;;;18.80;99.90;;;;;;5004024;28;21353;-48
2023/09/06 07:14:55;;;;;;;4.07;3.77;;;18.80;99.90;;;;;;5015738;28;20580;-53
2023/09/06 07:17:27;;;;;;;5.17;4.20;;;18.90;99.90;;;;;;5011094;28;20212;-45
2023/09/06 07:19:55;;;;;;;3.93;3.60;;;19.00;99.90;;;;;;5012619;28;20314;-53
2023/09/06 07:22:24;;;;;;;4.10;3.70;;;19.10;99.90;;;;;;5014610;28;20249;-47
2023/09/06 07:24:53;;;;;;;4.00;3.60;;;19.20;99.90;;;;;;5029778;28;20809;-54
2023/09/06 07:27:25;;;;;;;5.50;3.73;;;19.30;99.90;;;;;;5009341;28;20235;-46
2023/09/06 07:29:55;;;;;;;3.40;3.10;;;19.50;99.90;;;;;;5013064;28;20732;-52
2023/09/06 07:32:29;;;;;;;3.37;3.07;;;19.60;99.90;;;;;;5012077;28;20200;-53
2023/09/06 07:35:00;;;;;;;3.83;3.43;;;19.70;99.90;;;;;;5027753;28;20183;-53
2023/09/06 07:37:29;;;;;;;3.90;3.57;;;19.80;99.90;;;;;;5001068;28;20223;-52
2023/09/06 07:40:06;;;;;;;4.87;3.40;;;19.90;99.90;;;;;;5030854;28;20203;-57
2023/09/06 07:42:40;;;;;;;3.20;2.90;;;20.10;99.90;;;;;;5014761;28;20202;-46
2023/09/06 07:45:18;;;;;;;4.47;3.00;;;20.20;99.90;;;;;;5006018;28;20202;-55
2023/09/06 07:47:46;;;;;;;3.67;2.97;;;20.40;99.90;;;;;;5012215;28;20200;-48
2023/09/06 07:50:13;;;;;;;3.07;2.67;;;20.60;99.90;;;;;;5014506;28;20365;-49
2023/09/06 07:52:41;;;;;;;2.97;2.77;;;20.70;99.90;;;;;;4992039;28;20694;-51
2023/09/06 07:55:12;;;;;;;4.27;2.80;;;20.80;99.90;;;;;;5017821;28;20231;-57
2023/09/06 07:57:44;;;;;;;3.17;2.87;;;21.00;99.90;;;;;;5015750;28;20210;-46
2023/09/06 08:00:16;;;;;;;3.03;2.60;;;21.00;99.90;;;;;;4999993;28;20473;-53
2023/09/06 08:02:47;;;;;;;3.10;2.60;;;21.10;99.90;;;;;;5014564;28;20207;-48
2023/09/06 08:05:16;;;;;;;2.77;2.57;;;21.30;99.90;;;;;;5014504;28;20200;-51
2023/09/06 08:07:45;;;;;;;2.60;2.40;;;21.40;99.90;;;;;;5000981;28;20339;-50
2023/09/06 08:10:15;;;;;;;2.13;2.03;;;21.50;99.90;;;;;;5021267;28;20928;-52
2023/09/06 08:12:43;;;;;;;2.53;2.33;;;21.50;99.90;;;;;;5020787;28;20199;-56
2023/09/06 08:15:11;;;;;;;5.07;2.83;;;21.70;99.90;;;;;;5014401;28;20222;-50
2023/09/06 08:17:39;;;;;;;5.33;2.47;;;21.80;99.90;;;;;;5007993;28;20191;-57
2023/09/06 08:20:12;;;;;;;2.73;2.43;;;22.00;99.90;;;;;;5021190;28;20211;-54
2023/09/06 08:22:40;;;;;;;3.33;2.20;;;22.20;99.90;;;;;;5009339;28;20195;-59
2023/09/06 08:25:09;;;;;;;2.37;2.20;;;22.30;99.90;;;;;;5023684;28;20211;-46
2023/09/06 08:27:38;;;;;;;2.20;2.00;;;22.40;99.90;;;;;;5029823;28;20207;-58
2023/09/06 08:30:10;;;;;;;2.90;2.17;;;22.50;99.90;;;;;;5008076;28;20243;-52
2023/09/06 08:32:39;;;;;;;6.03;2.17;;;22.60;99.90;;;;;;5004906;28;20201;-57
2023/09/06 08:35:13;;;;;;;3.00;2.10;;;22.70;99.90;;;;;;5013880;28;20207;-52
2023/09/06 08:37:45;;;;;;;4.65;2.28;;;22.90;99.90;;;;;;5026874;28;20703;-56
2023/09/06 08:40:18;;;;;;;2.33;1.70;;;23.00;99.90;;;;;;5005490;28;20227;-50
2023/09/06 08:42:52;;;;;;;3.13;2.08;;;23.10;99.90;;;;;;5015057;28;20207;-54
2023/09/06 08:45:24;;;;;;;2.17;2.03;;;23.20;99.90;;;;;;5018292;28;20196;-49
2023/09/06 08:47:53;;;;;;;4.45;2.25;;;23.30;99.90;;;;;;4996252;28;23392;-46
2023/09/06 08:50:22;;;;;;;2.47;2.28;;;23.30;99.90;;;;;;5018482;28;20215;-51
2023/09/06 08:52:59;;;;;;;2.55;2.35;;;23.40;99.90;;;;;;5014552;28;20436;-47
2023/09/06 08:55:33;;;;;;;4.25;2.10;;;23.30;99.90;;;;;;5006523;28;20235;-54
2023/09/06 08:58:06;;;;;;;11.05;2.25;;;23.50;99.90;;;;;;5024573;28;20234;-52
2023/09/06 09:00:34;;;;;;;4.70;2.20;;;23.60;99.90;;;;;;5013199;28;20204;-58
2023/09/06 09:03:03;;;;;;;2.42;2.00;;;23.80;99.90;;;;;;5004481;28;20259;-51
2023/09/06 09:05:31;;;;;;;2.50;2.03;;;23.90;99.90;;;;;;5021384;28;20650;-51
2023/09/06 09:08:04;;;;;;;2.33;1.77;;;23.90;99.90;;;;;;5014539;28;20204;-48
2023/09/06 09:10:33;;;;;;;2.17;1.67;;;24.00;99.90;;;;;;4998811;28;20226;-46
2023/09/06 09:13:05;;;;;;;1.90;1.58;;;24.00;99.90;;;;;;5016910;28;20707;-47
2023/09/06 09:15:34;;;;;;;1.58;1.48;;;24.10;99.90;;;;;;5015174;28;20216;-52
2023/09/06 09:18:15;;;;;;;1.58;1.48;;;24.20;99.90;;;;;;5004975;28;20200;-54
2023/09/06 09:20:49;;;;;;;1.70;1.50;;;24.30;99.90;;;;;;5010955;28;20194;-51
2023/09/06 09:23:19;;;;;;;1.70;1.60;;;24.50;99.90;;;;;;5007593;28;20207;-58
2023/09/06 09:25:54;;;;;;;2.03;1.35;;;24.70;99.90;;;;;;5003371;28;20616;-50
2023/09/06 09:28:27;;;;;;;2.00;1.48;;;24.80;99.90;;;;;;5022884;28;20774;-53
2023/09/06 09:30:57;;;;;;;1.50;1.33;;;24.90;99.90;;;;;;5016091;28;20262;-51
2023/09/06 09:33:33;;;;;;;2.00;1.63;;;24.90;99.90;;;;;;5005523;28;20834;-49
2023/09/06 09:36:03;;;;;;;1.50;1.40;;;24.90;99.90;;;;;;5014279;28;20266;-49
2023/09/06 09:38:33;;;;;;;2.20;1.40;;;24.90;99.90;;;;;;5015333;28;20527;-51
2023/09/06 09:41:08;;;;;;;2.90;1.48;;;24.90;99.90;;;;;;5004463;28;20666;-54
2023/09/06 09:43:40;;;;;;;2.88;1.42;;;25.00;99.90;;;;;;5017726;28;20226;-51
2023/09/06 09:46:09;;;;;;;2.30;1.55;;;25.20;99.90;;;;;;5016300;28;20216;-58
2023/09/06 09:48:39;;;;;;;1.75;1.40;;;25.30;99.90;;;;;;5009701;28;20311;-51
2023/09/06 09:51:17;;;;;;;2.03;1.40;;;25.50;99.90;;;;;;5018100;28;20274;-57
2023/09/06 09:53:51;;;;;;;1.92;1.23;;;25.50;99.90;;;;;;5016377;28;20214;-50
2023/09/06 09:56:22;;;;;;;2.33;1.50;;;25.70;99.90;;;;;;5005695;28;20552;-55
2023/09/06 09:58:56;;;;;;;2.88;1.30;;;25.90;99.90;;;;;;5019537;28;20219;-48
2023/09/06 10:01:23;;;;;;;1.33;1.23;;;26.10;99.90;;;;;;5015901;28;20290;-50
2023/09/06 10:03:55;;;;;;;1.80;1.20;;;26.10;99.90;;;;;;5023141;28;20208;-51
2023/09/06 10:06:24;;;;;;;1.55;1.40;;;26.10;99.90;;;;;;5009144;28;21356;-52
2023/09/06 10:08:54;;;;;;;2.97;1.58;;;26.10;99.90;;;;;;5013501;28;20208;-52
2023/09/06 10:11:22;;;;;;;1.20;1.20;;;26.00;99.90;;;;;;5007095;28;20226;-53
2023/09/06 10:13:51;;;;;;;5.65;1.50;;;26.00;99.90;;;;;;5021635;28;20207;-50
2023/09/06 10:16:18;;;;;;;1.95;1.20;;;26.10;99.90;;;;;;5013297;28;20505;-52
2023/09/06 10:18:47;;;;;;;1.30;1.20;;;26.30;99.90;;;;;;5017305;28;20227;-50
2023/09/06 10:21:20;;;;;;;1.95;1.70;;;26.50;99.90;;;;;;5008068;28;20212;-52
2023/09/06 10:23:51;;;;;;;1.20;1.10;;;26.60;99.90;;;;;;5008129;28;20553;-50
2023/09/06 10:26:26;;;;;;;1.30;1.20;;;26.60;99.90;;;;;;5003833;28;20244;-53
2023/09/06 10:28:58;;;;;;;1.10;1.00;;;26.60;99.90;;;;;;5011419;28;20203;-53
2023/09/06 10:31:35;;;;;;;1.38;1.10;;;26.70;99.90;;;;;;5014785;28;20228;-53
2023/09/06 10:34:02;;;;;;;1.20;1.00;;;26.70;99.90;;;;;;5013879;28;20247;-57
2023/09/06 10:36:30;;;;;;;1.38;1.27;;;26.90;99.90;;;;;;5017108;28;20242;-49
2023/09/06 10:39:16;;;;;;;2.75;1.20;;;27.00;99.90;;;;;;5006414;28;20200;-59
2023/09/06 10:42:18;;;;;;;1.15;1.10;;;26.90;99.90;;;;;;5002769;28;20250;-49
2023/09/06 10:45:10;;;;;;;2.70;1.30;;;26.90;99.90;;;;;;5023489;28;20223;-52
2023/09/06 10:47:42;;;;;;;1.52;1.08;;;27.00;99.90;;;;;;5029967;28;20196;-50
2023/09/06 10:50:18;;;;;;;1.45;1.33;;;27.20;99.90;;;;;;5011221;28;20230;-57
2023/09/06 10:52:48;;;;;;;2.17;1.20;;;27.30;99.90;;;;;;5011926;28;20196;-53
2023/09/06 10:55:20;;;;;;;1.20;0.98;;;27.40;99.90;;;;;;5004045;28;20964;-51
2023/09/06 10:58:03;;;;;;;1.33;1.17;;;27.40;99.90;;;;;;5011887;28;20203;-54
2023/09/06 11:00:40;;;;;;;1.45;1.33;;;27.50;99.90;;;;;;5025524;28;20189;-49
2023/09/06 11:03:31;;;;;;;2.08;1.00;;;27.60;99.90;;;;;;5024969;28;20202;-59
2023/09/06 11:06:04;;;;;;;1.75;1.20;;;27.70;99.90;;;;;;5009994;28;20223;-57
2023/09/06 11:08:34;;;;;;;2.83;1.02;;;27.70;99.90;;;;;;5014262;28;20270;-52
2023/09/06 11:11:07;;;;;;;1.02;1.00;;;27.70;99.90;;;;;;5013453;28;20208;-54
2023/09/06 11:13:46;;;;;;;3.15;1.15;;;27.80;99.90;;;;;;5007274;28;20199;-58
2023/09/06 11:16:19;;;;;;;1.42;0.90;;;27.70;99.90;;;;;;5021909;28;20579;-52
2023/09/06 11:18:51;;;;;;;1.27;1.17;;;27.70;99.90;;;;;;5020305;28;20211;-55
2023/09/06 11:21:23;;;;;;;0.90;0.90;;;27.90;99.70;;;;;;5016879;28;20666;-51
2023/09/06 11:23:52;;;;;;;1.95;0.90;;;28.00;99.20;;;;;;5012010;28;20204;-57
2023/09/06 11:26:20;;;;;;;1.23;0.98;;;28.10;98.80;;;;;;5011323;28;20227;-54
2023/09/06 11:28:49;;;;;;;1.30;1.17;;;28.30;98.30;;;;;;5009176;28;20200;-58
2023/09/06 11:31:30;;;;;;;1.00;1.00;;;28.40;98.10;;;;;;5018702;28;20318;-53
2023/09/06 11:34:12;;;;;;;1.52;1.30;;;28.40;98.90;;;;;;5014788;28;20200;-54
2023/09/06 11:36:41;;;;;;;1.88;0.90;;;28.30;98.20;;;;;;5005773;28;20226;-57
2023/09/06 11:39:18;;;;;;;1.15;1.05;;;28.40;98.20;;;;;;5009483;28;20424;-50
2023/09/06 11:41:48;;;;;;;1.27;1.17;;;28.40;98.60;;;;;;5019790;28;20677;-55
2023/09/06 11:44:19;;;;;;;1.80;0.90;;;28.40;98.40;;;;;;5005502;28;20207;-51
2023/09/06 11:46:53;;;;;;;1.27;0.80;;;28.50;97.90;;;;;;5026082;28;20301;-56
2023/09/06 11:49:24;;;;;;;4.28;1.15;;;28.60;97.70;;;;;;5021615;28;20288;-52
2023/09/06 11:51:53;;;;;;;2.10;1.00;;;28.60;97.30;;;;;;5005045;28;20208;-58
2023/09/06 11:54:26;;;;;;;2.95;0.85;;;28.60;97.50;;;;;;5009770;28;20299;-54
2023/09/06 11:56:57;;;;;;;0.98;0.85;;;28.50;97.50;;;;;;5011455;28;20219;-53
2023/09/06 11:59:25;;;;;;;2.90;1.27;;;28.60;97.40;;;;;;5017176;28;20225;-52
2023/09/06 12:02:00;;;;;;;0.80;0.80;;;28.70;97.60;;;;;;5000605;28;20207;-52
2023/09/06 12:04:30;;;;;;;1.85;0.95;;;28.70;97.20;;;;;;5021299;28;20199;-50
2023/09/06 12:07:00;;;;;;;1.38;1.02;;;28.80;96.40;;;;;;5012215;28;20825;-55
2023/09/06 12:09:29;;;;;;;0.77;0.77;;;29.00;96.10;;;;;;5003322;28;20281;-56
2023/09/06 12:12:01;;;;;;;1.00;0.90;;;29.00;95.40;;;;;;5020825;28;20310;-49
2023/09/06 12:14:31;;;;;;;1.30;1.20;;;29.00;95.00;;;;;;5013578;28;20200;-54
2023/09/06 12:17:05;;;;;;;0.70;0.70;;;29.00;95.60;;;;;;4997639;28;20220;-47
2023/09/06 12:19:41;;;;;;;1.50;0.90;;;28.90;95.90;;;;;;5013332;28;20208;-57
2023/09/06 12:22:08;;;;;;;0.88;0.88;;;29.00;95.20;;;;;;5013336;28;20224;-49
2023/09/06 12:24:35;;;;;;;1.40;0.88;;;29.10;95.40;;;;;;5000452;28;20208;-57
2023/09/06 12:27:03;;;;;;;1.85;1.08;;;29.10;94.40;;;;;;5014597;28;20721;-48
2023/09/06 12:29:30;;;;;;;1.58;1.10;;;29.20;94.10;;;;;;5011122;28;20212;-56
2023/09/06 12:31:57;;;;;;;1.92;0.80;;;29.30;94.60;;;;;;5001380;28;20235;-53
2023/09/06 12:34:25;;;;;;;1.33;0.90;;;29.30;94.60;;;;;;5017117;28;20200;-57
2023/09/06 12:36:52;;;;;;;1.27;0.80;;;29.20;95.10;;;;;;5012017;28;20322;-46
2023/09/06 12:39:19;;;;;;;2.25;0.73;;;29.30;94.30;;;;;;5013310;28;20282;-56
2023/09/06 12:41:47;;;;;;;1.77;0.90;;;29.40;93.20;;;;;;5007100;28;21361;-48
2023/09/06 12:44:15;;;;;;;1.02;1.00;;;29.40;92.90;;;;;;5010421;28;20200;-49
2023/09/06 12:46:42;;;;;;;0.98;0.98;;;29.50;92.80;;;;;;4994202;28;20320;-49
2023/09/06 12:49:08;;;;;;;1.02;0.73;;;29.60;92.80;;;;;;5010677;28;20200;-52
2023/09/06 12:51:37;;;;;;;1.20;0.95;;;29.80;92.50;;;;;;5021441;28;20216;-50
2023/09/06 12:54:05;;;;;;;0.70;0.70;;;29.90;92.30;;;;;;5003012;28;20204;-59
2023/09/06 12:56:32;;;;;;;0.80;0.80;;;29.80;92.80;;;;;;5022807;28;20257;-49
2023/09/06 12:58:59;;;;;;;0.80;0.80;;;29.80;92.10;;;;;;5012477;28;20574;-58